Time;durP1;ratioP1;P1;durP2;ratioP2;P2;SDS_P1;SDS_P2;PMS_P1;PMS_P2;Temp;Humidity;BMP_temperature;BMP_pressure;BME280_temperature;BME280_humidity;BME280_pressure;Samples;Min_cycle;Max_cycle;Signal;HPM_P1;HPM_P2
2024/01/05 00:01:37;;;;;;;11.38;3.67;;;;;;;;;;5031772;28;20259;-67
2024/01/05 00:04:02;;;;;;;7.55;3.70;;;;;;;;;;5031833;28;20016;-67
2024/01/05 00:06:28;;;;;;;8.35;3.45;;;;;;;;;;5030477;28;20112;-67
2024/01/05 00:08:53;;;;;;;5.70;2.95;;;;;;;;;;5031818;28;20108;-67
2024/01/05 00:11:19;;;;;;;5.60;2.10;;;;;;;;;;5031473;28;20370;-67
2024/01/05 00:13:44;;;;;;;5.68;1.95;;;;;;;;;;5030484;28;20749;-67
2024/01/05 00:16:19;;;;;;;4.93;2.30;;;;;;;;;;5031017;28;20054;-67
2024/01/05 00:18:45;;;;;;;6.25;1.80;;;;;;;;;;5030190;28;20018;-67
2024/01/05 00:21:23;;;;;;;7.57;1.95;;;;;;;;;;5027567;28;20115;-67
2024/01/05 00:23:49;;;;;;;10.50;2.63;;;;;;;;;;5030396;28;20032;-68
2024/01/05 00:26:14;;;;;;;11.35;2.40;;;;;;;;;;5030898;28;20112;-67
2024/01/05 00:28:39;;;;;;;8.20;2.30;;;;;;;;;;5030972;28;20018;-67
2024/01/05 00:31:04;;;;;;;7.53;2.10;;;;;;;;;;5030084;28;20048;-67
2024/01/05 00:33:30;;;;;;;5.93;2.10;;;;;;;;;;5030784;28;20254;-67
2024/01/05 00:35:55;;;;;;;7.33;2.23;;;;;;;;;;5030907;28;20036;-67
2024/01/05 00:38:21;;;;;;;7.35;3.03;;;;;;;;;;5029947;28;20324;-67
2024/01/05 00:40:46;;;;;;;8.47;3.10;;;;;;;;;;5030929;28;20021;-68
2024/01/05 00:43:11;;;;;;;6.22;3.83;;;;;;;;;;5029820;28;20266;-68
2024/01/05 00:45:36;;;;;;;11.23;4.53;;;;;;;;;;5029447;28;20635;-67
2024/01/05 00:48:02;;;;;;;8.43;2.70;;;;;;;;;;5029033;28;21600;-67
2024/01/05 00:50:27;;;;;;;7.03;2.83;;;;;;;;;;5030572;28;20025;-67
2024/01/05 00:52:52;;;;;;;10.23;3.43;;;;;;;;;;5029986;28;20104;-67
2024/01/05 00:55:17;;;;;;;5.57;2.37;;;;;;;;;;5030438;28;20266;-67
2024/01/05 00:57:42;;;;;;;5.73;2.60;;;;;;;;;;5030753;28;20025;-74
2024/01/05 01:00:09;;;;;;;2.70;1.98;;;;;;;;;;5029661;28;20266;-74
2024/01/05 01:02:36;;;;;;;5.68;2.17;;;;;;;;;;5030510;28;20049;-74
2024/01/05 01:05:01;;;;;;;8.27;2.00;;;;;;;;;;5030462;28;20014;-73
2024/01/05 01:07:26;;;;;;;5.87;2.17;;;;;;;;;;5029442;28;20355;-73
2024/01/05 01:09:51;;;;;;;4.60;1.60;;;;;;;;;;5030483;28;20258;-74
2024/01/05 01:12:16;;;;;;;5.83;1.43;;;;;;;;;;5030406;28;20747;-74
2024/01/05 01:14:42;;;;;;;8.67;2.30;;;;;;;;;;5029954;28;20263;-73
2024/01/05 01:17:07;;;;;;;7.70;2.30;;;;;;;;;;5030088;28;20293;-74
2024/01/05 01:19:32;;;;;;;3.70;1.90;;;;;;;;;;5029836;28;20049;-74
2024/01/05 01:21:57;;;;;;;11.50;2.13;;;;;;;;;;5025125;28;20286;-73
2024/01/05 01:24:23;;;;;;;7.80;2.03;;;;;;;;;;5030253;28;20274;-73
2024/01/05 01:26:48;;;;;;;5.07;1.90;;;;;;;;;;5029447;28;20274;-74
2024/01/05 01:29:13;;;;;;;8.67;2.03;;;;;;;;;;5030414;28;20254;-73
2024/01/05 01:31:38;;;;;;;7.10;2.20;;;;;;;;;;5030162;28;20025;-74
2024/01/05 01:34:04;;;;;;;4.60;1.90;;;;;;;;;;5029351;28;20263;-74
2024/01/05 01:36:29;;;;;;;3.58;1.98;;;;;;;;;;5030472;28;20349;-73
2024/01/05 01:38:54;;;;;;;13.07;3.77;;;;;;;;;;5028718;28;20386;-73
2024/01/05 01:41:19;;;;;;;7.77;3.53;;;;;;;;;;5029932;28;20269;-74
2024/01/05 01:43:46;;;;;;;11.13;3.97;;;;;;;;;;5030386;28;20266;-74
2024/01/05 01:46:11;;;;;;;10.77;3.85;;;;;;;;;;5029635;28;20719;-73
2024/01/05 01:48:37;;;;;;;10.93;4.77;;;;;;;;;;5030340;28;20097;-73
2024/01/05 01:51:02;;;;;;;11.40;4.50;;;;;;;;;;5030170;28;20254;-74
2024/01/05 01:53:28;;;;;;;11.73;4.95;;;;;;;;;;5029366;28;20021;-73
2024/01/05 01:55:53;;;;;;;11.18;5.22;;;;;;;;;;5029969;28;20022;-73
2024/01/05 01:58:20;;;;;;;9.73;4.53;;;;;;;;;;5030116;28;20501;-73
2024/01/05 02:00:45;;;;;;;14.98;4.57;;;;;;;;;;5029220;28;20628;-74
2024/01/05 02:03:11;;;;;;;6.93;3.28;;;;;;;;;;5029850;28;20018;-73
2024/01/05 02:05:37;;;;;;;9.05;3.72;;;;;;;;;;5029428;28;20033;-67
2024/01/05 02:08:02;;;;;;;5.63;2.60;;;;;;;;;;5033450;28;20053;-73
2024/01/05 02:10:28;;;;;;;6.07;1.83;;;;;;;;;;5033808;28;20362;-73
2024/01/05 02:12:53;;;;;;;6.07;2.33;;;;;;;;;;5033147;28;20032;-74
2024/01/05 02:15:18;;;;;;;12.15;2.50;;;;;;;;;;5032485;28;20043;-73
2024/01/05 02:17:43;;;;;;;7.72;1.92;;;;;;;;;;5033428;28;20076;-73
2024/01/05 02:20:09;;;;;;;10.83;2.17;;;;;;;;;;5032696;28;20030;-73
2024/01/05 02:22:35;;;;;;;5.50;1.70;;;;;;;;;;5033259;28;20285;-73
2024/01/05 02:25:00;;;;;;;5.47;1.77;;;;;;;;;;5030952;28;20282;-73
2024/01/05 02:27:26;;;;;;;7.65;1.63;;;;;;;;;;5031510;28;20015;-73
2024/01/05 02:29:52;;;;;;;6.40;1.70;;;;;;;;;;5030939;28;20013;-73
2024/01/05 02:32:17;;;;;;;4.68;1.58;;;;;;;;;;5032942;28;20132;-73
2024/01/05 02:34:42;;;;;;;5.20;1.42;;;;;;;;;;5033067;28;20387;-73
2024/01/05 02:37:08;;;;;;;6.57;1.65;;;;;;;;;;5030398;28;20051;-73
2024/01/05 02:39:34;;;;;;;3.60;1.08;;;;;;;;;;5030595;28;20404;-73
2024/01/05 02:41:59;;;;;;;6.37;1.23;;;;;;;;;;5032133;28;20094;-72
2024/01/05 02:44:24;;;;;;;6.47;1.67;;;;;;;;;;5033083;28;20298;-73
2024/01/05 02:46:50;;;;;;;4.67;1.80;;;;;;;;;;5032986;28;20020;-73
2024/01/05 02:49:15;;;;;;;3.90;1.08;;;;;;;;;;5026980;28;20282;-73
2024/01/05 02:51:40;;;;;;;3.17;1.10;;;;;;;;;;5032861;28;20100;-73
2024/01/05 02:54:06;;;;;;;4.47;1.20;;;;;;;;;;5032944;28;20029;-74
2024/01/05 02:56:33;;;;;;;5.47;1.40;;;;;;;;;;5031832;28;21761;-73
2024/01/05 02:58:59;;;;;;;5.63;1.25;;;;;;;;;;5024763;28;20286;-73
2024/01/05 03:01:24;;;;;;;5.95;1.17;;;;;;;;;;5032037;28;20485;-73
2024/01/05 03:03:49;;;;;;;6.15;1.55;;;;;;;;;;5032959;28;20105;-73
2024/01/05 03:06:15;;;;;;;2.67;1.10;;;;;;;;;;5032975;28;20463;-73
2024/01/05 03:08:41;;;;;;;7.18;1.40;;;;;;;;;;5031971;28;20263;-73
2024/01/05 03:11:06;;;;;;;2.88;1.05;;;;;;;;;;5030909;28;20025;-73
2024/01/05 03:13:31;;;;;;;3.30;1.55;;;;;;;;;;5032279;28;20021;-74
2024/01/05 03:15:56;;;;;;;4.85;1.50;;;;;;;;;;5026978;28;20041;-67
2024/01/05 03:18:21;;;;;;;4.10;1.37;;;;;;;;;;5032229;28;20022;-67
2024/01/05 03:20:47;;;;;;;5.07;1.23;;;;;;;;;;5032584;28;20290;-67
2024/01/05 03:23:12;;;;;;;6.97;1.47;;;;;;;;;;5031742;28;20357;-67
2024/01/05 03:25:37;;;;;;;11.05;1.58;;;;;;;;;;5031305;28;20286;-67
2024/01/05 03:28:03;;;;;;;4.82;1.20;;;;;;;;;;5029711;28;20017;-68
2024/01/05 03:30:28;;;;;;;4.45;1.30;;;;;;;;;;5031975;28;20395;-67
2024/01/05 03:32:53;;;;;;;5.50;1.30;;;;;;;;;;5032162;28;20021;-67
2024/01/05 03:35:18;;;;;;;5.83;1.47;;;;;;;;;;5030985;28;20274;-67
2024/01/05 03:37:44;;;;;;;7.45;1.15;;;;;;;;;;5032052;28;20324;-67
2024/01/05 03:40:09;;;;;;;5.80;1.40;;;;;;;;;;5031962;28;20025;-67
2024/01/05 03:42:34;;;;;;;5.28;1.20;;;;;;;;;;5031011;28;20271;-67
2024/01/05 03:45:00;;;;;;;3.42;1.42;;;;;;;;;;5032021;28;20108;-67
2024/01/05 03:47:25;;;;;;;2.73;1.03;;;;;;;;;;5031395;28;20018;-68
2024/01/05 03:49:50;;;;;;;2.20;0.97;;;;;;;;;;5031814;28;20722;-67
2024/01/05 03:52:15;;;;;;;6.95;1.70;;;;;;;;;;5032183;28;20715;-67
2024/01/05 03:54:41;;;;;;;3.57;0.97;;;;;;;;;;5030745;28;20486;-68
2024/01/05 03:57:06;;;;;;;4.40;1.17;;;;;;;;;;5031640;28;20342;-67
2024/01/05 03:59:31;;;;;;;5.60;1.50;;;;;;;;;;5031608;28;20025;-67
2024/01/05 04:01:56;;;;;;;2.58;1.20;;;;;;;;;;5030668;28;20354;-67
2024/01/05 04:04:21;;;;;;;7.87;1.77;;;;;;;;;;5031615;28;20021;-67
2024/01/05 04:06:47;;;;;;;3.50;1.30;;;;;;;;;;5031538;28;20259;-67
2024/01/05 04:09:12;;;;;;;8.32;1.73;;;;;;;;;;5030088;28;20267;-67
2024/01/05 04:11:37;;;;;;;5.80;1.75;;;;;;;;;;5031446;28;20026;-67
2024/01/05 04:14:03;;;;;;;8.63;1.40;;;;;;;;;;5030718;28;20465;-68
2024/01/05 04:16:29;;;;;;;4.75;1.30;;;;;;;;;;5031096;28;20516;-67
2024/01/05 04:18:54;;;;;;;2.63;1.00;;;;;;;;;;5031227;28;20022;-67
2024/01/05 04:21:19;;;;;;;4.13;1.60;;;;;;;;;;5028478;28;20278;-67
2024/01/05 04:23:44;;;;;;;6.77;1.57;;;;;;;;;;5025285;28;20036;-67
2024/01/05 04:26:10;;;;;;;10.65;2.17;;;;;;;;;;5029492;28;20278;-68
2024/01/05 04:28:35;;;;;;;5.13;1.43;;;;;;;;;;5030785;28;20027;-67
2024/01/05 04:31:00;;;;;;;4.37;2.00;;;;;;;;;;5030670;28;20274;-67
2024/01/05 04:33:25;;;;;;;7.97;1.63;;;;;;;;;;5030263;28;20263;-67
2024/01/05 04:35:50;;;;;;;5.50;1.27;;;;;;;;;;5030997;28;20289;-67
2024/01/05 04:38:16;;;;;;;6.07;2.00;;;;;;;;;;5030992;28;20639;-67
2024/01/05 04:40:41;;;;;;;4.80;1.37;;;;;;;;;;5030311;28;20029;-67
2024/01/05 04:43:07;;;;;;;5.63;1.43;;;;;;;;;;5030035;28;20270;-67
2024/01/05 04:45:32;;;;;;;4.90;1.42;;;;;;;;;;5030606;28;20287;-68
2024/01/05 04:47:57;;;;;;;4.90;1.20;;;;;;;;;;5030501;28;20034;-67
2024/01/05 04:50:22;;;;;;;5.20;1.35;;;;;;;;;;5030948;28;20025;-67
2024/01/05 04:52:48;;;;;;;2.80;1.17;;;;;;;;;;5027978;28;20018;-68
2024/01/05 04:55:15;;;;;;;8.43;1.70;;;;;;;;;;5029618;28;20025;-67
2024/01/05 04:57:40;;;;;;;5.57;1.48;;;;;;;;;;5028617;28;20266;-67
2024/01/05 05:00:06;;;;;;;5.97;1.15;;;;;;;;;;5031048;28;20108;-67
2024/01/05 05:02:31;;;;;;;4.55;1.35;;;;;;;;;;5029677;28;20140;-67
2024/01/05 05:04:56;;;;;;;4.90;1.60;;;;;;;;;;5030694;28;20021;-67
2024/01/05 05:07:21;;;;;;;6.10;1.70;;;;;;;;;;5029941;28;20258;-67
2024/01/05 05:09:47;;;;;;;4.47;1.30;;;;;;;;;;5030426;28;20274;-67
2024/01/05 05:12:12;;;;;;;4.53;1.48;;;;;;;;;;5030563;28;20289;-67
2024/01/05 05:14:37;;;;;;;2.77;0.90;;;;;;;;;;5030311;28;20498;-67
2024/01/05 05:17:02;;;;;;;4.47;1.67;;;;;;;;;;5029814;28;20370;-67
2024/01/05 05:19:28;;;;;;;3.88;1.40;;;;;;;;;;5027569;28;20682;-68
2024/01/05 05:21:53;;;;;;;3.93;1.23;;;;;;;;;;5025443;28;20017;-67
2024/01/05 05:24:18;;;;;;;3.60;1.50;;;;;;;;;;5024443;28;20635;-66
2024/01/05 05:26:43;;;;;;;7.63;1.97;;;;;;;;;;5025199;28;20634;-68
2024/01/05 05:29:08;;;;;;;8.57;1.83;;;;;;;;;;5029890;28;20281;-68
2024/01/05 05:31:34;;;;;;;8.80;2.40;;;;;;;;;;5029455;28;20627;-67
2024/01/05 05:33:59;;;;;;;4.83;1.80;;;;;;;;;;5030326;28;20618;-66
2024/01/05 05:36:24;;;;;;;4.97;1.57;;;;;;;;;;5030316;28;20845;-71
2024/01/05 05:38:50;;;;;;;3.30;1.40;;;;;;;;;;5025977;28;20269;-71
2024/01/05 05:41:15;;;;;;;6.05;1.60;;;;;;;;;;5029508;28;20277;-71
2024/01/05 05:43:40;;;;;;;4.97;1.80;;;;;;;;;;5030138;28;20087;-71
2024/01/05 05:46:06;;;;;;;4.65;1.58;;;;;;;;;;5029550;28;20022;-71
2024/01/05 05:48:31;;;;;;;9.20;1.33;;;;;;;;;;5035917;28;20084;-71
2024/01/05 05:50:56;;;;;;;5.32;1.38;;;;;;;;;;5035951;28;20040;-71
2024/01/05 05:53:22;;;;;;;6.70;1.67;;;;;;;;;;5035711;28;20487;-70
2024/01/05 05:55:47;;;;;;;5.97;1.50;;;;;;;;;;5035990;28;20087;-72
2024/01/05 05:58:12;;;;;;;3.90;1.30;;;;;;;;;;5035891;28;20021;-70
2024/01/05 06:00:37;;;;;;;6.63;1.27;;;;;;;;;;5035929;28;20326;-71
2024/01/05 06:03:05;;;;;;;9.40;1.60;;;;;;;;;;5035835;28;20283;-71
2024/01/05 06:05:31;;;;;;;6.90;1.50;;;;;;;;;;5035865;28;20426;-71
2024/01/05 06:07:56;;;;;;;6.50;1.58;;;;;;;;;;5032818;28;20097;-71
2024/01/05 06:10:22;;;;;;;7.10;1.53;;;;;;;;;;5035443;28;20033;-71
2024/01/05 06:12:47;;;;;;;3.53;1.20;;;;;;;;;;5035414;28;20935;-71
2024/01/05 06:15:12;;;;;;;6.33;1.40;;;;;;;;;;5035294;28;20112;-71
2024/01/05 06:17:37;;;;;;;4.30;1.40;;;;;;;;;;5033793;28;20368;-71
2024/01/05 06:20:04;;;;;;;4.03;1.20;;;;;;;;;;5034203;28;20425;-70
2024/01/05 06:22:30;;;;;;;5.07;1.50;;;;;;;;;;5031392;28;20763;-72
2024/01/05 06:24:56;;;;;;;4.70;1.60;;;;;;;;;;5015597;28;20088;-72
2024/01/05 06:27:21;;;;;;;8.77;1.80;;;;;;;;;;5015626;28;20357;-70
2024/01/05 06:29:46;;;;;;;4.82;1.48;;;;;;;;;;5014063;28;20477;-71
2024/01/05 06:32:11;;;;;;;6.40;1.43;;;;;;;;;;5017419;28;20033;-72
2024/01/05 06:34:37;;;;;;;4.77;1.60;;;;;;;;;;5014608;28;20266;-72
2024/01/05 06:37:02;;;;;;;4.68;1.63;;;;;;;;;;5015746;28;20280;-71
2024/01/05 06:39:27;;;;;;;4.47;1.63;;;;;;;;;;5013729;28;20421;-71
2024/01/05 06:41:53;;;;;;;5.80;1.53;;;;;;;;;;5014670;28;20024;-71
2024/01/05 06:44:18;;;;;;;6.18;1.55;;;;;;;;;;5016679;28;20618;-71
2024/01/05 06:46:43;;;;;;;5.72;1.60;;;;;;;;;;5015317;28;20029;-70
2024/01/05 06:49:09;;;;;;;3.75;1.20;;;;;;;;;;5014905;28;20494;-71
2024/01/05 06:51:37;;;;;;;8.07;1.93;;;;;;;;;;5015146;28;20057;-71
2024/01/05 06:54:02;;;;;;;5.55;2.13;;;;;;;;;;5014369;28;20334;-71
2024/01/05 06:56:31;;;;;;;7.68;1.30;;;;;;;;;;5016635;28;20108;-71
2024/01/05 06:58:57;;;;;;;6.43;1.92;;;;;;;;;;5020082;28;20041;-71
2024/01/05 07:01:22;;;;;;;5.20;1.45;;;;;;;;;;5025103;28;20029;-70
2024/01/05 07:03:48;;;;;;;9.32;1.60;;;;;;;;;;5034703;28;20044;-71
2024/01/05 07:06:13;;;;;;;10.73;1.60;;;;;;;;;;5027370;28;20022;-71
2024/01/05 07:08:39;;;;;;;3.73;1.63;;;;;;;;;;5014741;28;20239;-71
2024/01/05 07:11:04;;;;;;;8.48;1.70;;;;;;;;;;5016223;28;20264;-71
2024/01/05 07:13:30;;;;;;;7.70;1.50;;;;;;;;;;5023283;28;20547;-72
2024/01/05 07:15:55;;;;;;;5.50;1.52;;;;;;;;;;5022712;28;20052;-71
2024/01/05 07:18:20;;;;;;;6.47;1.55;;;;;;;;;;5019931;28;20533;-71
2024/01/05 07:20:45;;;;;;;3.95;1.70;;;;;;;;;;5024947;28;20033;-72
2024/01/05 07:23:11;;;;;;;7.63;1.50;;;;;;;;;;5014294;28;20036;-71
2024/01/05 07:25:36;;;;;;;5.30;1.50;;;;;;;;;;5019450;28;20262;-71
2024/01/05 07:28:01;;;;;;;6.43;1.85;;;;;;;;;;5028518;28;20252;-71
2024/01/05 07:30:26;;;;;;;6.30;1.23;;;;;;;;;;5023801;28;20028;-70
2024/01/05 07:32:52;;;;;;;3.63;1.57;;;;;;;;;;5026102;28;20243;-72
2024/01/05 07:35:17;;;;;;;7.07;1.47;;;;;;;;;;5021557;28;20263;-71
2024/01/05 07:37:43;;;;;;;5.15;1.40;;;;;;;;;;5021183;28;20034;-71
2024/01/05 07:40:09;;;;;;;5.45;1.70;;;;;;;;;;5033406;28;20036;-71
2024/01/05 07:42:34;;;;;;;4.13;1.40;;;;;;;;;;5031136;28;20026;-72
2024/01/05 07:45:00;;;;;;;2.87;1.30;;;;;;;;;;5030203;28;20508;-70
2024/01/05 07:47:25;;;;;;;3.40;1.60;;;;;;;;;;5033591;28;20389;-71
2024/01/05 07:49:50;;;;;;;4.70;1.45;;;;;;;;;;5033562;28;20017;-70
2024/01/05 07:52:16;;;;;;;3.47;1.45;;;;;;;;;;5024398;28;20022;-71
2024/01/05 07:54:42;;;;;;;9.23;1.58;;;;;;;;;;5032981;28;20025;-70
2024/01/05 07:57:07;;;;;;;4.93;1.40;;;;;;;;;;5021431;28;20045;-72
2024/01/05 07:59:33;;;;;;;3.80;1.27;;;;;;;;;;5033393;28;20159;-71
2024/01/05 08:01:58;;;;;;;4.38;1.40;;;;;;;;;;5022679;28;20026;-72
2024/01/05 08:04:23;;;;;;;10.17;1.30;;;;;;;;;;5012520;28;20010;-71
2024/01/05 08:06:48;;;;;;;5.07;1.17;;;;;;;;;;5016838;28;20022;-71
2024/01/05 08:09:14;;;;;;;6.80;1.33;;;;;;;;;;5032415;28;20255;-70
2024/01/05 08:11:39;;;;;;;2.77;1.30;;;;;;;;;;5032079;28;20611;-71
2024/01/05 08:14:07;;;;;;;5.77;1.77;;;;;;;;;;5031274;28;20719;-71
2024/01/05 08:16:32;;;;;;;4.80;1.27;;;;;;;;;;5031036;28;20614;-71
2024/01/05 08:18:57;;;;;;;7.27;1.30;;;;;;;;;;5031606;28;20079;-70
2024/01/05 08:21:23;;;;;;;2.77;1.23;;;;;;;;;;5031513;28;20325;-71
2024/01/05 08:23:48;;;;;;;7.60;1.77;;;;;;;;;;5031470;28;20065;-71
2024/01/05 08:26:16;;;;;;;4.27;1.10;;;;;;;;;;5031658;28;20108;-71
2024/01/05 08:28:41;;;;;;;3.47;1.15;;;;;;;;;;5032988;28;20251;-71
2024/01/05 08:31:07;;;;;;;5.63;1.50;;;;;;;;;;5032975;28;20024;-71
2024/01/05 08:33:32;;;;;;;5.35;1.42;;;;;;;;;;5032777;28;20598;-71
2024/01/05 08:35:57;;;;;;;5.88;1.17;;;;;;;;;;5032680;28;20021;-71
2024/01/05 08:38:23;;;;;;;2.72;1.10;;;;;;;;;;5032778;28;20474;-71
2024/01/05 08:40:50;;;;;;;4.20;1.33;;;;;;;;;;5032685;28;20489;-71
2024/01/05 08:43:16;;;;;;;4.28;1.20;;;;;;;;;;5032634;28;20265;-71
2024/01/05 08:45:41;;;;;;;2.47;1.17;;;;;;;;;;5032650;28;20025;-71
2024/01/05 08:48:06;;;;;;;5.43;1.47;;;;;;;;;;5032557;28;20024;-71
2024/01/05 08:50:32;;;;;;;4.20;1.35;;;;;;;;;;5032487;28;20265;-71
2024/01/05 08:52:57;;;;;;;2.33;1.17;;;;;;;;;;5032475;28;20071;-71
2024/01/05 08:55:22;;;;;;;3.30;1.20;;;;;;;;;;5032459;28;20036;-71
2024/01/05 08:57:48;;;;;;;4.15;1.20;;;;;;;;;;5032658;28;20251;-71
2024/01/05 09:00:15;;;;;;;8.60;1.30;;;;;;;;;;5032722;28;20018;-71
2024/01/05 09:02:40;;;;;;;2.22;0.98;;;;;;;;;;5032417;28;20031;-71
2024/01/05 09:05:05;;;;;;;9.10;1.50;;;;;;;;;;5032538;28;20022;-70
2024/01/05 09:07:33;;;;;;;3.45;1.40;;;;;;;;;;5032586;28;20239;-71
2024/01/05 09:09:59;;;;;;;2.53;1.08;;;;;;;;;;5013506;28;20026;-71
2024/01/05 09:12:24;;;;;;;2.40;1.23;;;;;;;;;;5011159;28;20097;-71
2024/01/05 09:14:49;;;;;;;3.55;1.20;;;;;;;;;;5012183;28;20381;-71
2024/01/05 09:17:15;;;;;;;1.63;1.00;;;;;;;;;;5012050;28;20104;-72
2024/01/05 09:19:40;;;;;;;4.37;1.10;;;;;;;;;;5012481;28;20247;-70
2024/01/05 09:22:07;;;;;;;3.45;1.25;;;;;;;;;;5012411;28;20252;-71
2024/01/05 09:24:32;;;;;;;4.57;1.08;;;;;;;;;;5012301;28;20087;-71
2024/01/05 09:26:57;;;;;;;3.47;1.00;;;;;;;;;;5012372;28;20502;-71
2024/01/05 09:29:23;;;;;;;4.43;1.23;;;;;;;;;;5012355;28;20020;-71
2024/01/05 09:31:48;;;;;;;8.57;1.50;;;;;;;;;;5012473;28;20018;-71
2024/01/05 09:34:13;;;;;;;5.35;1.10;;;;;;;;;;5012382;28;20474;-70
2024/01/05 09:36:41;;;;;;;6.57;1.10;;;;;;;;;;5012266;28;20470;-71
2024/01/05 09:39:06;;;;;;;5.15;1.10;;;;;;;;;;5012300;28;20022;-71
2024/01/05 09:41:31;;;;;;;4.03;1.10;;;;;;;;;;5012312;28;20045;-72
2024/01/05 09:43:58;;;;;;;3.13;1.27;;;;;;;;;;5012266;28;20040;-71
2024/01/05 09:46:23;;;;;;;4.78;1.45;;;;;;;;;;5010924;28;20311;-71
2024/01/05 09:48:48;;;;;;;4.63;1.33;;;;;;;;;;5012392;28;20104;-71
2024/01/05 09:51:15;;;;;;;2.20;1.13;;;;;;;;;;5012214;28;20014;-71
2024/01/05 09:53:42;;;;;;;4.88;1.17;;;;;;;;;;5012167;28;20266;-71
2024/01/05 09:56:07;;;;;;;1.00;0.82;;;;;;;;;;5012387;28;20022;-71
2024/01/05 09:58:33;;;;;;;4.80;1.25;;;;;;;;;;5012102;28;20561;-71
2024/01/05 10:01:01;;;;;;;3.22;0.93;;;;;;;;;;5012319;28;20028;-71
2024/01/05 10:03:27;;;;;;;4.05;1.17;;;;;;;;;;5012123;28;20026;-72
2024/01/05 10:05:53;;;;;;;5.80;1.08;;;;;;;;;;5012110;28;20052;-71
2024/01/05 10:08:19;;;;;;;6.55;1.40;;;;;;;;;;5012005;28;20025;-70
2024/01/05 10:10:46;;;;;;;1.70;0.90;;;;;;;;;;5012021;28;20022;-70
2024/01/05 10:13:11;;;;;;;3.65;0.95;;;;;;;;;;5011935;28;20508;-71
2024/01/05 10:15:50;;;;;;;2.37;0.93;;;;;;;;;;5011799;28;20026;-72
2024/01/05 10:18:18;;;;;;;3.95;1.10;;;;;;;;;;5012054;28;20739;-67
2024/01/05 10:20:44;;;;;;;2.05;0.98;;;;;;;;;;5011995;28;20053;-67
2024/01/05 10:23:09;;;;;;;3.95;1.58;;;;;;;;;;5011873;28;20080;-67
2024/01/05 10:25:37;;;;;;;1.75;0.88;;;;;;;;;;5011785;28;20018;-67
2024/01/05 10:28:18;;;;;;;3.17;1.08;;;;;;;;;;5013722;28;20014;-67
2024/01/05 10:30:43;;;;;;;5.75;1.15;;;;;;;;;;5015346;28;20014;-67
2024/01/05 10:33:09;;;;;;;2.50;1.00;;;;;;;;;;5015449;28;20382;-67
2024/01/05 10:35:35;;;;;;;3.10;1.13;;;;;;;;;;5015264;28;20021;-67
2024/01/05 10:38:11;;;;;;;5.72;1.25;;;;;;;;;;5015198;28;20076;-67
2024/01/05 10:40:36;;;;;;;5.07;1.20;;;;;;;;;;5015359;28;20041;-67
2024/01/05 10:43:12;;;;;;;2.88;1.50;;;;;;;;;;5015115;28;20026;-67
2024/01/05 10:45:37;;;;;;;2.47;1.10;;;;;;;;;;5015019;28;20026;-67
2024/01/05 10:48:04;;;;;;;3.58;1.40;;;;;;;;;;5015176;28;20022;-67
2024/01/05 10:50:30;;;;;;;2.88;1.10;;;;;;;;;;5014937;28;20053;-67
2024/01/05 10:52:57;;;;;;;3.03;0.88;;;;;;;;;;5020457;28;20382;-67
2024/01/05 10:55:22;;;;;;;4.60;1.45;;;;;;;;;;5024431;28;20041;-68
2024/01/05 10:57:47;;;;;;;4.13;1.63;;;;;;;;;;5027918;28;20022;-68
2024/01/05 11:00:13;;;;;;;6.07;1.50;;;;;;;;;;5020795;28;20254;-72
2024/01/05 11:02:42;;;;;;;3.35;1.20;;;;;;;;;;5026706;28;20274;-68
2024/01/05 11:05:08;;;;;;;8.02;1.20;;;;;;;;;;5026503;28;20029;-68
2024/01/05 11:07:34;;;;;;;3.70;1.27;;;;;;;;;;5027106;28;20049;-68
2024/01/05 11:10:09;;;;;;;6.63;1.20;;;;;;;;;;5023581;28;20053;-68
2024/01/05 11:12:49;;;;;;;3.60;1.02;;;;;;;;;;5028628;28;20470;-68
2024/01/05 11:15:14;;;;;;;5.13;1.42;;;;;;;;;;5029097;28;20472;-68
2024/01/05 11:17:40;;;;;;;5.50;1.00;;;;;;;;;;5024472;28;20052;-68
2024/01/05 11:20:08;;;;;;;6.05;1.45;;;;;;;;;;5033721;28;20025;-68
2024/01/05 11:22:37;;;;;;;7.15;1.40;;;;;;;;;;5033357;28;20025;-68
2024/01/05 11:25:03;;;;;;;3.55;0.95;;;;;;;;;;5031635;28;20099;-68
2024/01/05 11:27:35;;;;;;;7.93;1.38;;;;;;;;;;5033850;28;20026;-68
2024/01/05 11:30:02;;;;;;;5.40;1.10;;;;;;;;;;5030382;28;20028;-68
2024/01/05 11:32:46;;;;;;;3.08;1.00;;;;;;;;;;5033821;28;20017;-68
2024/01/05 11:35:19;;;;;;;4.45;1.75;;;;;;;;;;5033481;28;20071;-68
2024/01/05 11:37:45;;;;;;;2.75;1.30;;;;;;;;;;5033479;28;20025;-68
2024/01/05 11:40:31;;;;;;;11.20;1.45;;;;;;;;;;5033400;28;20021;-68
2024/01/05 11:42:59;;;;;;;6.78;1.83;;;;;;;;;;5033674;28;20537;-68
2024/01/05 11:45:45;;;;;;;4.10;1.65;;;;;;;;;;5033288;28;20083;-68
2024/01/05 11:48:30;;;;;;;4.43;0.98;;;;;;;;;;5025321;28;20025;-68
2024/01/05 11:50:57;;;;;;;8.02;1.40;;;;;;;;;;5033018;28;20096;-68
2024/01/05 11:53:24;;;;;;;6.10;1.33;;;;;;;;;;5032848;28;20021;-68
2024/01/05 11:55:50;;;;;;;9.65;0.98;;;;;;;;;;5031330;28;20052;-68
2024/01/05 11:58:16;;;;;;;7.72;1.10;;;;;;;;;;5033092;28;20022;-68
2024/01/05 12:00:44;;;;;;;3.08;1.00;;;;;;;;;;5033022;28;20018;-68
2024/01/05 12:03:09;;;;;;;3.88;1.27;;;;;;;;;;5033060;28;20477;-68
2024/01/05 12:05:35;;;;;;;2.60;0.80;;;;;;;;;;5032859;28;20025;-68
2024/01/05 12:08:00;;;;;;;3.70;0.93;;;;;;;;;;5032935;28;20010;-76
2024/01/05 12:10:28;;;;;;;8.18;1.25;;;;;;;;;;5030297;28;20250;-75
2024/01/05 12:12:54;;;;;;;2.50;1.13;;;;;;;;;;5028347;28;20017;-76
2024/01/05 12:15:20;;;;;;;2.53;0.98;;;;;;;;;;5025444;28;20022;-68
2024/01/05 12:17:47;;;;;;;2.58;1.02;;;;;;;;;;5029369;28;20037;-68
2024/01/05 12:20:13;;;;;;;1.63;0.68;;;;;;;;;;5026254;28;20013;-68
2024/01/05 12:22:38;;;;;;;4.45;1.00;;;;;;;;;;5021459;28;20025;-67
2024/01/05 12:25:04;;;;;;;4.97;1.13;;;;;;;;;;5021295;28;20496;-67
2024/01/05 12:27:36;;;;;;;4.00;0.90;;;;;;;;;;5020039;28;20076;-74
2024/01/05 12:30:02;;;;;;;3.30;1.40;;;;;;;;;;5027010;28;20021;-66
2024/01/05 12:32:30;;;;;;;3.95;1.27;;;;;;;;;;5026499;28;20689;-66
2024/01/05 12:34:55;;;;;;;6.93;1.42;;;;;;;;;;5014965;28;20022;-66
2024/01/05 12:37:21;;;;;;;6.40;1.40;;;;;;;;;;5021760;28;20039;-66
2024/01/05 12:39:46;;;;;;;2.15;1.30;;;;;;;;;;5028411;28;20338;-66
2024/01/05 12:42:11;;;;;;;2.90;1.10;;;;;;;;;;5021466;28;20092;-66
2024/01/05 12:44:37;;;;;;;4.32;1.30;;;;;;;;;;5018899;28;20095;-66
2024/01/05 12:47:02;;;;;;;3.45;1.40;;;;;;;;;;5019055;28;20104;-66
2024/01/05 12:49:27;;;;;;;2.60;1.00;;;;;;;;;;5023309;28;20029;-66
2024/01/05 12:51:53;;;;;;;2.40;0.98;;;;;;;;;;5029388;28;20067;-66
2024/01/05 12:54:20;;;;;;;2.40;1.23;;;;;;;;;;5017896;28;20025;-67
2024/01/05 12:56:45;;;;;;;4.35;0.98;;;;;;;;;;5027144;28;20474;-67
2024/01/05 12:59:17;;;;;;;2.45;1.00;;;;;;;;;;5026399;28;20025;-66
2024/01/05 13:01:42;;;;;;;3.45;1.00;;;;;;;;;;5017380;28;20017;-66
2024/01/05 13:04:08;;;;;;;1.93;0.80;;;;;;;;;;5020808;28;20437;-66
2024/01/05 13:06:37;;;;;;;3.05;1.10;;;;;;;;;;5023695;28;20344;-66
2024/01/05 13:09:02;;;;;;;0.82;0.63;;;;;;;;;;5022585;28;20092;-66
2024/01/05 13:11:28;;;;;;;4.07;1.00;;;;;;;;;;5026678;28;20462;-66
2024/01/05 13:13:53;;;;;;;5.18;1.33;;;;;;;;;;5029870;28;20462;-66
2024/01/05 13:16:19;;;;;;;4.00;0.93;;;;;;;;;;5030786;28;20061;-66
2024/01/05 13:18:44;;;;;;;4.38;0.98;;;;;;;;;;5024002;28;20033;-66
2024/01/05 13:21:09;;;;;;;4.43;0.87;;;;;;;;;;5028729;28;20037;-66
2024/01/05 13:23:34;;;;;;;4.33;1.30;;;;;;;;;;5017609;28;20255;-66
2024/01/05 13:26:00;;;;;;;3.87;1.10;;;;;;;;;;5022851;28;20285;-66
2024/01/05 13:28:25;;;;;;;1.45;0.75;;;;;;;;;;5023388;28;20252;-66
2024/01/05 13:30:51;;;;;;;3.55;1.40;;;;;;;;;;5029293;28;20417;-66
2024/01/05 13:33:16;;;;;;;2.67;0.93;;;;;;;;;;5023700;28;20025;-66
2024/01/05 13:35:41;;;;;;;3.87;1.00;;;;;;;;;;5029549;28;20266;-67
2024/01/05 13:38:06;;;;;;;2.65;0.75;;;;;;;;;;5026771;28;20022;-67
2024/01/05 13:40:31;;;;;;;3.10;0.50;;;;;;;;;;5018173;28;20030;-67
2024/01/05 13:42:57;;;;;;;3.35;0.90;;;;;;;;;;5018769;28;20247;-67
2024/01/05 13:45:22;;;;;;;5.32;1.10;;;;;;;;;;5026218;28;20593;-66
2024/01/05 13:47:48;;;;;;;4.28;0.80;;;;;;;;;;5022994;28;20037;-66
2024/01/05 13:50:13;;;;;;;3.23;0.80;;;;;;;;;;5022335;28;20009;-66
2024/01/05 13:52:39;;;;;;;3.92;1.27;;;;;;;;;;5020988;28;20377;-66
2024/01/05 13:55:04;;;;;;;2.78;0.80;;;;;;;;;;5024320;28;20117;-66
2024/01/05 13:57:29;;;;;;;1.38;0.80;;;;;;;;;;5020557;28;20366;-66
2024/01/05 13:59:54;;;;;;;4.50;0.80;;;;;;;;;;5020729;28;20474;-66
2024/01/05 14:02:20;;;;;;;5.20;1.00;;;;;;;;;;5026194;28;20796;-66
2024/01/05 14:04:46;;;;;;;1.50;0.63;;;;;;;;;;5025305;28;20747;-66
2024/01/05 14:07:11;;;;;;;1.88;1.02;;;;;;;;;;5027318;28;20031;-66
2024/01/05 14:09:36;;;;;;;2.58;0.90;;;;;;;;;;5028773;28;20098;-66
2024/01/05 14:12:02;;;;;;;4.47;0.90;;;;;;;;;;5034481;28;20017;-66
2024/01/05 14:14:27;;;;;;;6.68;0.80;;;;;;;;;;5021992;28;20496;-66
2024/01/05 14:16:52;;;;;;;2.53;1.00;;;;;;;;;;5029835;28;20100;-66
2024/01/05 14:19:18;;;;;;;4.72;1.33;;;;;;;;;;5025966;28;20309;-66
2024/01/05 14:21:43;;;;;;;1.25;0.93;;;;;;;;;;5031855;28;20505;-67
2024/01/05 14:24:09;;;;;;;1.42;1.00;;;;;;;;;;5031895;28;20029;-67
2024/01/05 14:26:34;;;;;;;1.90;0.77;;;;;;;;;;5034429;28;20036;-66
2024/01/05 14:28:59;;;;;;;3.95;1.35;;;;;;;;;;5026444;28;20385;-67
2024/01/05 14:31:25;;;;;;;6.60;1.60;;;;;;;;;;5034927;28;20013;-66
2024/01/05 14:33:50;;;;;;;5.53;1.27;;;;;;;;;;5034885;28;20261;-66
2024/01/05 14:36:16;;;;;;;1.80;1.08;;;;;;;;;;5030240;28;20117;-66